AC7TK-2 Weather Reports


Display with metric or nautical units.
time (UTC)temp
F
wind
direction
speed
MPH
gust
MPH
rain 1hr
in
rain 24hr
in
rain mn
in
humidity
%
barometer
mb
20190617205704 76 0 7.0 16.0 0.00 0.00 0.00 41 1019.4
20190617205630 76 355 6.0 9.0 0.00 0.00 0.00 41 1019.5
20190617204702 74 328 6.0 9.0 0.00 0.00 0.00 43 1019.6
20190617204128 75 8 8.0 12.0 0.00 0.00 0.00 41 1019.6
20190617203704 75 335 8.0 9.0 0.00 0.00 0.00 41 1019.6
20190617202702 75 317 4.0 4.0 0.00 0.00 0.00 41 1019.5
20190617202630 75 317 4.0 4.0 0.00 0.00 0.00 41 1019.5
20190617201702 75 7 6.0 10.0 0.00 0.00 0.00 41 1019.6
20190617201129 74 342 5.0 8.0 0.00 0.00 0.00 44 1019.6
20190617200701 74 350 7.0 10.0 0.00 0.00 0.00 44 1019.7
20190617195702 74 342 5.0 6.0 0.00 0.00 0.00 44 1019.8
20190617195629 73 342 7.0 11.0 0.00 0.00 0.00 44 1019.8
20190617194703 73 8 5.0 8.0 0.00 0.00 0.00 44 1019.9
20190617194129 73 351 6.0 9.0 0.00 0.00 0.00 45 1019.9
20190617193701 73 342 3.0 11.0 0.00 0.00 0.00 45 1020.0
20190617192701 72 312 5.0 8.0 0.00 0.00 0.00 46 1019.9
20190617192630 72 312 5.0 8.0 0.00 0.00 0.00 46 1019.9
20190617191703 72 332 5.0 6.0 0.00 0.00 0.00 48 1020.0
20190617191132 72 353 8.0 10.0 0.00 0.00 0.00 47 1020.1
20190617190702 71 342 2.0 9.0 0.00 0.00 0.00 49 1020.1
20190617185701 70 343 7.0 9.0 0.00 0.00 0.00 50 1020.2
20190617185628 70 343 7.0 9.0 0.00 0.00 0.00 50 1020.2
20190617184702 71 350 5.0 11.0 0.00 0.00 0.00 50 1020.2
20190617184131 71 346 3.0 10.0 0.00 0.00 0.00 51 1020.1
20190617183702 70 337 4.0 8.0 0.00 0.00 0.00 52 1020.2
20190617182629 70 341 4.0 7.0 0.00 0.00 0.00 52 1020.2
20190617181631 69 353 6.0 9.0 0.00 0.00 0.00 55 1020.2
20190617181131 69 334 5.0 7.0 0.00 0.00 0.00 56 1020.3
20190617180631 69 339 9.0 11.0 0.00 0.00 0.00 56 1020.3
20190617175631 68 339 5.0 6.0 0.00 0.00 0.00 58 1020.4
20190617174632 68 11 2.0 7.0 0.00 0.00 0.00 59 1020.3
20190617174131 67 346 1.0 3.0 0.00 0.00 0.00 61 1020.4
20190617173631 67 327 4.0 6.0 0.00 0.00 0.00 62 1020.4
20190617172630 66 352 3.0 7.0 0.00 0.00 0.00 63 1020.4
20190617171630 66 339 4.0 9.0 0.00 0.00 0.00 64 1020.4
20190617171130 65 344 3.0 5.0 0.00 0.00 0.00 65 1020.4
20190617170631 65 354 4.0 6.0 0.00 0.00 0.00 66 1020.4
20190617165631 64 353 5.0 6.0 0.00 0.00 0.00 68 1020.4
20190617164632 64 345 2.0 6.0 0.00 0.00 0.00 68 1020.4
20190617164129 63 0 3.0 6.0 0.00 0.00 0.00 68 1020.4
20190617163630 64 338 3.0 9.0 0.00 0.00 0.00 67 1020.4
20190617162629 63 295 2.0 5.0 0.00 0.00 0.00 68 1020.4
20190617161630 63 318 3.0 4.0 0.00 0.00 0.00 69 1020.5
20190617161129 63 323 3.0 6.0 0.00 0.00 0.00 69 1020.4
20190617160630 62 299 1.0 2.0 0.00 0.00 0.00 70 1020.3
20190617155630 63 26 0.0 2.0 0.00 0.00 0.00 69 1020.4
20190617154631 62 19 4.0 4.0 0.00 0.00 0.00 71 1020.3
20190617154130 62 0 1.0 3.0 0.00 0.00 0.00 72 1020.3
20190617153631 61 349 4.0 5.0 0.00 0.00 0.00 72 1020.2
20190617152629 61 346 3.0 4.0 0.00 0.00 0.00 73 1020.2
20190617151631 60 2 2.0 3.0 0.00 0.00 0.00 74 1020.3
20190617150632 59 329 1.0 1.0 0.00 0.00 0.00 76 1020.3
20190617145630 59 348 2.0 3.0 0.00 0.00 0.00 76 1020.3
20190617144631 58 357 2.0 4.0 0.00 0.00 0.00 78 1020.2
20190617144131 58 328 1.0 2.0 0.00 0.00 0.00 79 1020.2
20190617143631 57 329 1.0 2.0 0.00 0.00 0.00 79 1020.2
20190617142631 57 313 2.0 2.0 0.00 0.00 0.00 80 1020.1
20190617141631 57 305 2.0 2.0 0.00 0.00 0.00 80 1020.2
20190617141130 57 328 1.0 2.0 0.00 0.00 0.00 81 1020.1
20190617140631 56 351 3.0 4.0 0.00 0.00 0.00 81 1020.1
20190617135629 56 327 4.0 5.0 0.00 0.00 0.00 81 1020.0
20190617134632 56 337 3.0 5.0 0.00 0.00 0.00 81 1020.0
20190617134130 56 336 2.0 5.0 0.00 0.00 0.00 81 1020.0
20190617133631 56 345 3.0 4.0 0.00 0.00 0.00 81 1019.9
20190617132630 55 349 2.0 3.0 0.00 0.00 0.00 82 1019.9
20190617131630 55 352 0.0 0.0 0.00 0.00 0.00 82 1019.8
20190617131131 55 295 0.0 2.0 0.00 0.00 0.00 83 1019.8
20190617130632 55 284 0.0 0.0 0.00 0.00 0.00 82 1019.7
20190617125630 55 284 0.0 0.0 0.00 0.00 0.00 82 1019.6
20190617124630 55 284 0.0 0.0 0.00 0.00 0.00 82 1019.4
20190617124130 55 284 0.0 0.0 0.00 0.00 0.00 82 1019.4
20190617123631 56 305 0.0 0.0 0.00 0.00 0.00 82 1019.3
20190617122631 56 294 0.0 0.0 0.00 0.00 0.00 81 1019.2
20190617121631 56 284 0.0 0.0 0.00 0.00 0.00 81 1019.1
20190617121130 56 264 0.0 2.0 0.00 0.00 0.00 81 1019.2
20190617120631 56 274 0.0 2.0 0.00 0.00 0.00 81 1019.2
20190617115630 56 330 0.0 1.0 0.00 0.00 0.00 81 1019.2
20190617114631 57 312 0.0 1.0 0.00 0.00 0.00 81 1019.3
20190617114130 57 301 0.0 2.0 0.00 0.00 0.00 81 1019.4
20190617113631 57 285 0.0 1.0 0.00 0.00 0.00 80 1019.2
20190617112631 57 324 2.0 2.0 0.00 0.00 0.00 80 1019.1
20190617111630 57 334 2.0 5.0 0.00 0.00 0.00 80 1019.0
20190617111129 57 332 2.0 3.0 0.00 0.00 0.00 81 1019.0
20190617110631 57 340 1.0 3.0 0.00 0.00 0.00 81 1018.9
20190617105630 57 315 1.0 1.0 0.00 0.00 0.00 81 1018.9
20190617104631 57 309 1.0 1.0 0.00 0.00 0.00 81 1018.8
20190617104130 57 276 0.0 2.0 0.00 0.00 0.00 81 1018.7
20190617103631 57 309 1.0 1.0 0.00 0.00 0.00 80 1018.8
20190617102630 57 323 1.0 2.0 0.00 0.00 0.00 80 1018.6
20190617101631 57 317 1.0 3.0 0.00 0.00 0.00 80 1018.6
20190617101130 57 297 1.0 3.0 0.00 0.00 0.00 80 1018.6
20190617100631 57 302 0.0 2.0 0.00 0.00 0.00 80 1018.6
20190617095629 58 332 0.0 0.0 0.00 0.00 0.00 80 1018.6
20190617094630 58 332 0.0 0.0 0.00 0.00 0.00 79 1018.5
20190617094129 58 332 0.0 0.0 0.00 0.00 0.00 80 1018.5
20190617093630 58 332 1.0 1.0 0.00 0.00 0.00 79 1018.3
20190617092629 58 350 4.0 4.0 0.00 0.00 0.00 79 1018.2
20190617091630 58 8 1.0 3.0 0.00 0.00 0.00 79 1018.2
20190617091129 59 341 0.0 1.0 0.00 0.00 0.00 78 1018.2
20190617090630 59 29 1.0 2.0 0.00 0.00 0.00 78 1018.1
20190617085629 59 27 1.0 3.0 0.00 0.00 0.00 78 1018.1
20190617084631 59 49 1.0 3.0 0.00 0.00 0.00 77 1018.2
20190617084130 60 26 1.0 3.0 0.00 0.00 0.00 76 1018.1
20190617083631 60 25 1.0 1.0 0.00 0.00 0.00 76 1018.2
20190617082630 60 25 2.0 3.0 0.00 0.00 0.00 75 1018.1
20190617081629 60 359 2.0 2.0 0.00 0.00 0.00 74 1018.0
20190617081129 61 25 0.0 2.0 0.00 0.00 0.00 73 1018.1
20190617080630 61 356 3.0 3.0 0.00 0.00 0.00 73 1018.0
20190617075629 61 343 4.0 5.0 0.00 0.00 0.00 73 1018.0
20190617074631 62 346 2.0 2.0 0.00 0.00 0.00 71 1017.9
20190617074130 62 45 4.0 4.0 0.00 0.00 0.00 71 1017.8
20190617073631 62 338 5.0 4.0 0.00 0.00 0.00 70 1017.9
20190617072630 62 313 0.0 3.0 0.00 0.00 0.00 70 1017.9
20190617071630 62 312 2.0 3.0 0.00 0.00 0.00 70 1017.9
20190617071130 62 336 3.0 5.0 0.00 0.00 0.00 70 1017.8
20190617070631 62 328 3.0 3.0 0.00 0.00 0.00 70 1017.7
20190617065630 62 330 3.0 4.0 0.00 0.00 0.00 70 1017.6
20190617064629 63 339 3.0 4.0 0.00 0.00 0.00 69 1017.4
20190617064128 63 347 3.0 5.0 0.00 0.00 0.00 68 1017.3
20190617063629 63 353 5.0 6.0 0.00 0.00 0.00 68 1017.3
20190617062629 64 345 5.0 9.0 0.00 0.00 0.00 67 1017.2
20190617061629 64 342 6.0 10.0 0.00 0.00 0.00 65 1017.2
20190617061130 65 343 6.0 9.0 0.00 0.00 0.00 64 1017.2
20190617060630 65 336 7.0 9.0 0.00 0.00 0.00 63 1017.1
20190617055629 66 341 5.0 8.0 0.00 0.00 0.00 61 1017.0
20190617054629 67 336 4.0 5.0 0.00 0.00 0.00 60 1016.9
20190617054129 67 342 6.0 14.0 0.00 0.00 0.00 60 1016.8
20190617053630 67 339 4.0 8.0 0.00 0.00 0.00 60 1016.7
20190617052731 67 337 5.0 8.0 0.00 0.00 0.00 60 1016.5
20190617052629 67 337 5.0 8.0 0.00 0.00 0.00 60 1016.5
20190617051630 68 344 3.0 5.0 0.00 0.00 0.00 59 1016.6
20190617050629 68 339 5.0 7.0 0.00 0.00 0.00 59 1016.6
20190617045630 68 352 3.0 6.0 0.00 0.00 0.00 58 1016.6
20190617044631 69 0 4.0 7.0 0.00 0.00 0.00 57 1016.5
20190617044313 69 347 4.0 5.0 0.00 0.00 0.00 57 1016.4
20190617044131 69 347 4.0 5.0 0.00 0.00 0.00 57 1016.4
20190617043631 69 351 3.0 4.0 0.00 0.00 0.00 56 1016.4
20190617042628 70 358 5.0 7.0 0.00 0.00 0.00 55 1016.1
20190617041629 71 0 3.0 4.0 0.00 0.00 0.00 54 1016.0
20190617041128 71 19 3.0 5.0 0.00 0.00 0.00 54 1015.9
20190617040629 72 347 3.0 4.0 0.00 0.00 0.00 53 1015.8
20190617035630 72 3 3.0 3.0 0.00 0.00 0.00 52 1015.6
20190617034629 72 348 3.0 4.0 0.00 0.00 0.00 51 1015.5
20190617034128 73 352 5.0 6.0 0.00 0.00 0.00 50 1015.3
20190617033629 73 15 4.0 6.0 0.00 0.00 0.00 51 1015.3
20190617032630 73 7 6.0 8.0 0.00 0.00 0.00 50 1015.3
20190617031631 75 4 3.0 5.0 0.00 0.00 0.00 47 1015.1
20190617031130 75 342 3.0 9.0 0.00 0.00 0.00 45 1015.1
20190617030630 76 352 3.0 9.0 0.00 0.00 0.00 43 1015.0
20190617025629 76 0 4.0 6.0 0.00 0.00 0.00 40 1014.9
20190617024629 76 348 3.0 6.0 0.00 0.00 0.00 39 1014.8
20190617024130 77 11 4.0 5.0 0.00 0.00 0.00 38 1014.9
20190617023631 77 8 3.0 5.0 0.00 0.00 0.00 38 1014.8
20190617022629 77 353 4.0 6.0 0.00 0.00 0.00 37 1014.9
20190617021629 78 343 4.0 9.0 0.00 0.00 0.00 36 1015.0
20190617021129 78 15 5.0 10.0 0.00 0.00 0.00 36 1014.9
20190617020629 78 20 6.0 8.0 0.00 0.00 0.00 36 1014.7
20190617015630 78 351 5.0 7.0 0.00 0.00 0.00 36 1014.8
20190617014629 78 6 6.0 9.0 0.00 0.00 0.00 36 1014.9
20190617014129 78 343 6.0 7.0 0.00 0.00 0.00 36 1014.9
20190617013630 78 341 5.0 9.0 0.00 0.00 0.00 36 1014.8
20190617012629 78 1 7.0 8.0 0.00 0.00 0.00 34 1014.8
20190617011631 78 25 7.0 10.0 0.00 0.00 0.00 35 1014.8
20190617011129 78 359 4.0 5.0 0.00 0.00 0.00 36 1014.9
20190617010629 78 346 6.0 11.0 0.00 0.00 0.00 36 1014.9
20190617005628 78 335 5.0 10.0 0.00 0.00 0.00 35 1014.9
20190617004629 78 348 5.0 7.0 0.00 0.00 0.00 35 1015.0
20190617004129 78 353 5.0 8.0 0.00 0.00 0.00 34 1014.9
20190617003630 78 341 6.0 10.0 0.00 0.00 0.00 34 1015.0
20190617002629 78 17 5.0 7.0 0.00 0.00 0.00 34 1014.9
20190617001630 78 349 7.0 8.0 0.00 0.00 0.00 34 1014.9
20190617001128 79 11 5.0 9.0 0.00 0.00 0.00 33 1014.9
20190617000629 78 6 6.0 9.0 0.00 0.00 0.00 33 1015.0
20190616235630 78 44 7.0 14.0 0.00 0.00 0.00 32 1015.0
20190616234630 79 9 5.0 8.0 0.00 0.00 0.00 30 1015.0
20190616234129 79 3 5.0 8.0 0.00 0.00 0.00 33 1015.1
20190616233630 79 350 3.0 4.0 0.00 0.00 0.00 33 1015.1
20190616232628 79 4 6.0 8.0 0.00 0.00 0.00 32 1015.2
20190616231630 78 4 7.0 10.0 0.00 0.00 0.00 31 1015.3
20190616231129 78 350 7.0 8.0 0.00 0.00 0.00 29 1015.3
20190616230631 78 4 6.0 12.0 0.00 0.00 0.00 28 1015.3
20190616225629 79 4 7.0 9.0 0.00 0.00 0.00 28 1015.4
20190616224629 78 346 6.0 11.0 0.00 0.00 0.00 27 1015.5
20190616224129 78 338 8.0 16.0 0.00 0.00 0.00 28 1015.5
20190616223630 79 327 5.0 7.0 0.00 0.00 0.00 25 1015.5
20190616222629 78 321 5.0 10.0 0.00 0.00 0.00 22 1015.6
20190616221631 77 327 7.0 10.0 0.00 0.00 0.00 29 1015.7
20190616221128 78 340 5.0 10.0 0.00 0.00 0.00 29 1015.7
20190616220629 77 350 6.0 6.0 0.00 0.00 0.00 32 1015.8
20190616215628 77 353 5.0 8.0 0.00 0.00 0.00 38 1015.8
20190616214630 77 10 4.0 9.0 0.00 0.00 0.00 38 1015.8
20190616214130 77 359 5.0 7.0 0.00 0.00 0.00 39 1015.8
20190616213631 77 341 7.0 10.0 0.00 0.00 0.00 40 1015.9
20190616212629 76 333 6.0 10.0 0.00 0.00 0.00 39 1015.9
20190616211630 76 350 7.0 11.0 0.00 0.00 0.00 41 1016.0
20190616211129 76 336 7.0 6.0 0.00 0.00 0.00 40 1016.1
20190616210630 75 347 9.0 9.0 0.00 0.00 0.00 41 1016.1